Time;durP1;ratioP1;P1;durP2;ratioP2;P2;SDS_P1;SDS_P2;PMS_P1;PMS_P2;Temp;Humidity;BMP_temperature;BMP_pressure;BME280_temperature;BME280_humidity;BME280_pressure;Samples;Min_cycle;Max_cycle;Signal;HPM_P1;HPM_P2
2021/05/21 00:00:45;;;;;;;35.75;5.03;;;12.80;99.90;;;;;;5079786;28;20419;-71
2021/05/21 00:03:11;;;;;;;43.67;5.78;;;12.70;99.90;;;;;;5079848;28;20539;-72
2021/05/21 00:05:37;;;;;;;41.05;5.40;;;12.60;99.90;;;;;;5065233;28;20434;-71
2021/05/21 00:08:04;;;;;;;34.20;5.53;;;12.50;99.90;;;;;;5081409;28;20434;-71
2021/05/21 00:10:30;;;;;;;35.90;5.40;;;12.50;99.90;;;;;;5077792;28;20422;-72
2021/05/21 00:12:57;;;;;;;37.33;5.50;;;12.50;99.90;;;;;;5064597;28;20434;-72
2021/05/21 00:15:24;;;;;;;43.08;5.65;;;12.40;99.90;;;;;;5081917;28;20437;-71
2021/05/21 00:17:50;;;;;;;41.15;5.50;;;12.40;99.90;;;;;;5067764;28;20434;-71
2021/05/21 00:20:17;;;;;;;38.42;5.57;;;12.40;99.90;;;;;;5082564;28;20432;-72
2021/05/21 00:22:43;;;;;;;39.30;5.30;;;12.40;99.90;;;;;;5085393;28;20422;-71
2021/05/21 00:25:10;;;;;;;45.63;5.55;;;12.30;99.90;;;;;;5080449;28;20427;-72
2021/05/21 00:27:36;;;;;;;43.13;6.28;;;12.30;99.90;;;;;;5079375;28;21469;-72
2021/05/21 00:30:07;;;;;;;47.70;6.00;;;12.20;99.90;;;;;;5062750;28;20422;-73
2021/05/21 00:32:34;;;;;;;44.22;5.55;;;12.30;99.90;;;;;;5082153;28;20893;-74
2021/05/21 00:35:00;;;;;;;41.33;5.35;;;12.30;99.90;;;;;;5082028;28;20439;-72
2021/05/21 00:37:27;;;;;;;40.97;6.00;;;12.30;99.90;;;;;;5084728;28;20429;-72
2021/05/21 00:39:53;;;;;;;42.97;5.97;;;12.30;99.90;;;;;;5083570;28;20877;-72
2021/05/21 00:42:19;;;;;;;40.10;5.63;;;12.30;99.90;;;;;;5085034;28;20546;-71
2021/05/21 00:44:53;;;;;;;38.65;5.20;;;12.40;99.90;;;;;;5082796;28;20430;-71
2021/05/21 00:47:21;;;;;;;42.55;5.68;;;12.30;99.90;;;;;;5085193;28;20429;-72
2021/05/21 00:49:47;;;;;;;38.42;5.40;;;12.40;99.90;;;;;;5085772;28;20978;-72
2021/05/21 00:52:16;;;;;;;33.17;5.20;;;12.30;99.90;;;;;;5086051;28;20968;-71
2021/05/21 00:54:44;;;;;;;36.08;5.20;;;12.30;99.90;;;;;;5086041;28;20440;-72
2021/05/21 00:57:10;;;;;;;38.28;5.22;;;12.30;99.90;;;;;;5087438;28;20621;-73
2021/05/21 00:59:37;;;;;;;41.13;5.70;;;12.30;99.90;;;;;;5068324;28;21005;-72
2021/05/21 01:02:03;;;;;;;34.47;5.47;;;12.20;99.90;;;;;;5083085;28;20438;-72
2021/05/21 01:04:31;;;;;;;38.97;5.20;;;12.20;99.90;;;;;;5088616;28;20425;-72
2021/05/21 01:06:57;;;;;;;35.80;5.18;;;12.20;99.90;;;;;;5068894;28;20422;-72
2021/05/21 01:09:24;;;;;;;37.20;5.30;;;12.20;99.90;;;;;;5070794;28;20426;-72
2021/05/21 01:11:51;;;;;;;36.65;5.30;;;12.20;99.90;;;;;;5085118;28;20977;-72
2021/05/21 01:14:17;;;;;;;38.03;5.18;;;12.20;99.90;;;;;;5087551;28;20421;-72
2021/05/21 01:16:44;;;;;;;36.70;5.45;;;12.20;99.90;;;;;;5085980;28;20920;-71
2021/05/21 01:19:10;;;;;;;38.03;5.87;;;12.20;99.90;;;;;;5084287;28;20649;-72
2021/05/21 01:21:37;;;;;;;43.05;5.53;;;12.20;99.90;;;;;;5083455;28;20882;-72
2021/05/21 01:24:05;;;;;;;39.75;6.43;;;12.30;99.90;;;;;;5085486;28;20432;-73
2021/05/21 01:26:32;;;;;;;36.95;5.28;;;12.30;99.90;;;;;;5067497;28;20420;-72
2021/05/21 01:28:58;;;;;;;35.70;5.47;;;12.30;99.90;;;;;;5065273;28;20463;-72
2021/05/21 01:31:25;;;;;;;37.73;5.80;;;12.30;99.90;;;;;;5084089;28;20593;-72
2021/05/21 01:33:52;;;;;;;40.72;5.78;;;12.30;99.90;;;;;;5088683;28;22064;-72
2021/05/21 01:36:20;;;;;;;44.28;5.75;;;12.30;99.90;;;;;;5085510;28;20424;-72
2021/05/21 01:38:59;;;;;;;41.70;5.60;;;12.30;99.90;;;;;;5086329;28;20433;-71
2021/05/21 01:41:27;;;;;;;37.07;5.90;;;12.30;99.90;;;;;;5082949;28;20914;-71
2021/05/21 01:43:55;;;;;;;44.05;6.63;;;12.30;99.90;;;;;;5087382;28;20796;-72
2021/05/21 01:46:22;;;;;;;45.13;6.72;;;12.30;99.90;;;;;;5080380;28;20758;-71
2021/05/21 01:48:49;;;;;;;39.78;5.60;;;12.30;99.90;;;;;;5082706;28;20630;-72
2021/05/21 01:51:15;;;;;;;40.00;5.40;;;12.30;99.90;;;;;;5086013;28;20769;-71
2021/05/21 01:53:42;;;;;;;42.30;6.25;;;12.30;99.90;;;;;;5083014;28;20895;-72
2021/05/21 01:56:09;;;;;;;38.55;6.28;;;12.30;99.90;;;;;;5084048;28;20417;-72
2021/05/21 01:58:35;;;;;;;44.00;5.95;;;12.30;99.90;;;;;;5082048;28;20905;-72
2021/05/21 02:01:02;;;;;;;46.75;6.60;;;12.30;99.90;;;;;;5081075;28;20808;-71
2021/05/21 02:03:29;;;;;;;38.03;6.15;;;12.30;99.90;;;;;;5082311;28;20429;-72
2021/05/21 02:05:56;;;;;;;44.42;6.85;;;12.40;99.90;;;;;;5082079;28;20882;-71
2021/05/21 02:08:24;;;;;;;44.97;6.35;;;12.40;99.90;;;;;;5080645;28;20486;-72
2021/05/21 02:10:50;;;;;;;46.53;6.68;;;12.40;99.90;;;;;;5061632;28;20430;-71
2021/05/21 02:13:18;;;;;;;42.30;6.00;;;12.40;99.90;;;;;;5081287;28;20417;-71
2021/05/21 02:15:45;;;;;;;43.25;6.40;;;12.40;99.90;;;;;;5063927;28;20437;-72
2021/05/21 02:18:12;;;;;;;46.53;6.45;;;12.50;99.90;;;;;;5062649;28;20413;-71
2021/05/21 02:20:38;;;;;;;43.90;6.33;;;12.50;99.90;;;;;;5082190;28;20487;-72
2021/05/21 02:23:06;;;;;;;40.78;6.10;;;12.50;99.90;;;;;;5082759;28;20432;-71
2021/05/21 02:25:32;;;;;;;39.20;6.35;;;12.50;99.90;;;;;;5077720;28;20514;-73
2021/05/21 02:27:59;;;;;;;39.03;6.25;;;12.50;99.90;;;;;;5082141;28;20437;-72
2021/05/21 02:30:27;;;;;;;46.03;7.10;;;12.50;99.90;;;;;;5080672;28;20425;-72
2021/05/21 02:32:54;;;;;;;45.00;6.80;;;12.50;99.90;;;;;;5082488;28;20417;-73
2021/05/21 02:35:21;;;;;;;36.87;5.83;;;12.60;99.90;;;;;;5083495;28;20508;-72
2021/05/21 02:37:48;;;;;;;45.10;6.50;;;12.60;99.90;;;;;;5077435;28;20425;-73
2021/05/21 02:40:15;;;;;;;37.83;5.75;;;12.60;99.90;;;;;;5084514;28;20422;-73
2021/05/21 02:42:41;;;;;;;46.10;6.20;;;12.60;99.90;;;;;;5084843;28;20462;-73
2021/05/21 02:45:08;;;;;;;36.85;5.90;;;12.60;99.90;;;;;;5085437;28;20418;-73
2021/05/21 02:47:36;;;;;;;39.88;6.18;;;12.60;99.90;;;;;;5100528;28;20421;-72
2021/05/21 02:50:03;;;;;;;44.00;6.38;;;12.60;99.90;;;;;;5101316;28;20771;-72
2021/05/21 02:52:30;;;;;;;40.35;6.05;;;12.60;99.70;;;;;;5066194;28;20936;-72
2021/05/21 02:54:57;;;;;;;40.88;6.65;;;12.50;99.40;;;;;;5086117;28;21021;-71
2021/05/21 02:57:24;;;;;;;31.90;5.78;;;12.60;99.20;;;;;;5086832;28;20502;-72
2021/05/21 02:59:53;;;;;;;43.45;6.03;;;12.60;98.80;;;;;;5083825;28;20422;-72
2021/05/21 03:02:19;;;;;;;39.63;6.33;;;12.60;98.50;;;;;;5086147;28;20425;-72
2021/05/21 03:04:46;;;;;;;40.85;6.13;;;12.60;98.30;;;;;;5066161;28;21050;-72
2021/05/21 03:07:13;;;;;;;39.85;6.32;;;12.60;98.20;;;;;;5082950;28;20425;-71
2021/05/21 03:09:39;;;;;;;44.15;6.38;;;12.60;98.00;;;;;;5087236;28;20475;-72
2021/05/21 03:12:07;;;;;;;41.38;6.15;;;12.60;97.60;;;;;;5082255;28;20959;-73
2021/05/21 03:14:33;;;;;;;39.05;5.72;;;12.60;97.50;;;;;;5085343;28;20441;-72
2021/05/21 03:17:00;;;;;;;36.17;5.90;;;12.60;97.60;;;;;;5081332;28;20957;-73
2021/05/21 03:19:27;;;;;;;41.40;6.35;;;12.60;96.90;;;;;;5084788;28;20437;-73
2021/05/21 03:21:54;;;;;;;36.10;5.70;;;12.70;96.90;;;;;;5083692;28;20470;-72
2021/05/21 03:24:20;;;;;;;33.37;5.50;;;12.70;96.50;;;;;;5085281;28;20433;-72
2021/05/21 03:26:47;;;;;;;35.43;5.40;;;12.70;96.50;;;;;;5081056;28;20920;-72
2021/05/21 03:29:15;;;;;;;40.47;5.70;;;12.70;96.40;;;;;;5083222;28;20437;-72
2021/05/21 03:31:41;;;;;;;29.58;5.10;;;12.70;96.30;;;;;;5084644;28;20434;-72
2021/05/21 03:34:07;;;;;;;32.85;5.47;;;12.70;96.20;;;;;;5085165;28;20868;-71
2021/05/21 03:36:34;;;;;;;26.27;5.20;;;12.70;95.80;;;;;;5066164;28;20429;-72
2021/05/21 03:39:02;;;;;;;37.83;5.30;;;12.70;95.30;;;;;;5081073;28;20435;-72
2021/05/21 03:41:29;;;;;;;33.23;5.33;;;12.70;95.20;;;;;;5078078;28;20417;-71
2021/05/21 03:43:55;;;;;;;35.28;5.03;;;12.70;95.40;;;;;;5083683;28;20432;-72
2021/05/21 03:46:21;;;;;;;32.88;5.60;;;12.70;95.50;;;;;;5067959;28;20491;-72
2021/05/21 03:48:48;;;;;;;33.22;5.28;;;12.80;95.50;;;;;;5081109;28;20781;-72
2021/05/21 03:51:14;;;;;;;35.80;5.45;;;12.80;95.30;;;;;;5085871;28;20422;-71
2021/05/21 03:53:41;;;;;;;27.92;5.03;;;12.80;94.60;;;;;;5081388;28;20453;-71
2021/05/21 03:56:08;;;;;;;34.72;5.65;;;12.80;94.30;;;;;;5081936;28;21251;-73
2021/05/21 03:58:34;;;;;;;34.63;4.93;;;12.80;94.20;;;;;;5079468;28;20427;-73
2021/05/21 04:01:01;;;;;;;31.30;4.50;;;12.80;94.50;;;;;;5083750;28;21069;-73
2021/05/21 04:03:28;;;;;;;33.87;6.00;;;12.90;94.30;;;;;;5082731;28;20421;-73
2021/05/21 04:05:54;;;;;;;33.08;5.60;;;12.90;94.10;;;;;;5084629;28;20432;-73
2021/05/21 04:08:21;;;;;;;36.45;5.75;;;12.90;94.20;;;;;;5084484;28;20425;-73
2021/05/21 04:10:47;;;;;;;31.25;5.07;;;13.00;94.40;;;;;;5081340;28;22558;-72
2021/05/21 04:13:14;;;;;;;32.70;5.47;;;13.00;94.70;;;;;;5082633;28;20808;-73
2021/05/21 04:15:41;;;;;;;40.08;5.72;;;13.00;94.50;;;;;;5081454;28;20449;-73
2021/05/21 04:18:10;;;;;;;27.87;5.10;;;13.10;94.30;;;;;;5066162;28;20429;-73
2021/05/21 04:20:37;;;;;;;33.08;5.03;;;13.10;94.10;;;;;;5066768;28;20920;-73
2021/05/21 04:23:04;;;;;;;31.77;4.90;;;13.10;94.10;;;;;;5084784;28;20429;-73
2021/05/21 04:25:31;;;;;;;27.98;4.53;;;13.10;94.10;;;;;;5088981;28;20448;-73
2021/05/21 04:27:57;;;;;;;27.63;4.68;;;13.20;94.00;;;;;;5087901;28;20415;-73
2021/05/21 04:30:25;;;;;;;30.95;4.90;;;13.20;93.80;;;;;;5083991;28;20500;-73
2021/05/21 04:32:51;;;;;;;23.53;4.70;;;13.20;93.90;;;;;;5085412;28;20426;-72
2021/05/21 04:35:18;;;;;;;27.90;4.38;;;13.20;94.10;;;;;;5087596;28;20456;-72
2021/05/21 04:37:44;;;;;;;31.65;4.75;;;13.20;94.30;;;;;;5086866;28;20422;-72
2021/05/21 04:40:11;;;;;;;29.85;4.78;;;13.30;94.70;;;;;;5089192;28;20924;-72
2021/05/21 04:42:38;;;;;;;24.65;4.47;;;13.30;95.00;;;;;;5070223;28;20414;-72
2021/05/21 04:45:06;;;;;;;31.20;4.80;;;13.30;95.10;;;;;;5070366;28;20464;-72
2021/05/21 04:47:34;;;;;;;30.27;4.90;;;13.30;95.80;;;;;;5088264;28;20512;-72
2021/05/21 04:50:00;;;;;;;30.52;4.82;;;13.20;97.50;;;;;;5070868;28;20422;-72
2021/05/21 04:52:27;;;;;;;29.75;4.55;;;13.20;98.90;;;;;;5085306;28;20437;-72
2021/05/21 04:54:53;;;;;;;33.97;5.15;;;13.10;99.90;;;;;;5087508;28;20897;-72
2021/05/21 04:57:19;;;;;;;31.60;5.15;;;13.00;99.90;;;;;;5088499;28;20432;-72
2021/05/21 04:59:46;;;;;;;31.38;4.65;;;12.90;99.90;;;;;;5085705;28;20781;-72
2021/05/21 05:02:12;;;;;;;29.95;4.88;;;12.80;99.90;;;;;;5086219;28;20425;-72
2021/05/21 05:04:39;;;;;;;30.00;4.93;;;12.70;99.90;;;;;;5085776;28;20426;-71
2021/05/21 05:07:06;;;;;;;33.97;5.07;;;12.60;99.90;;;;;;5081470;28;20980;-71
2021/05/21 05:09:32;;;;;;;33.53;4.90;;;12.50;99.90;;;;;;5086311;28;20433;-71
2021/05/21 05:11:59;;;;;;;37.90;5.30;;;12.40;99.90;;;;;;5082982;28;20489;-72
2021/05/21 05:14:26;;;;;;;34.97;5.35;;;12.20;99.90;;;;;;5086634;28;20434;-72
2021/05/21 05:16:54;;;;;;;31.63;4.75;;;12.10;99.90;;;;;;5083205;28;20924;-72
2021/05/21 05:19:20;;;;;;;28.92;4.80;;;12.00;99.90;;;;;;5084536;28;20435;-71
2021/05/21 05:21:48;;;;;;;30.55;4.63;;;12.00;99.90;;;;;;5086863;28;20425;-72
2021/05/21 05:24:17;;;;;;;33.08;5.55;;;11.90;99.90;;;;;;5084343;28;20623;-71
2021/05/21 05:26:44;;;;;;;32.03;5.60;;;11.90;99.90;;;;;;5086656;28;20488;-71
2021/05/21 05:29:10;;;;;;;33.78;5.63;;;11.90;99.90;;;;;;5083865;28;20547;-71
2021/05/21 05:31:38;;;;;;;29.63;5.18;;;12.00;99.90;;;;;;5086402;28;20479;-72
2021/05/21 05:34:04;;;;;;;27.70;4.78;;;12.00;99.90;;;;;;5082171;28;20417;-71
2021/05/21 05:36:31;;;;;;;32.30;4.70;;;12.20;99.90;;;;;;5084747;28;21034;-70
2021/05/21 05:38:58;;;;;;;30.90;5.07;;;12.20;99.90;;;;;;5063254;28;20439;-70
2021/05/21 05:41:25;;;;;;;28.20;5.00;;;12.20;99.90;;;;;;5060630;28;20423;-71
2021/05/21 05:43:51;;;;;;;30.10;4.70;;;12.30;99.90;;;;;;5062057;28;20423;-70
2021/05/21 05:46:18;;;;;;;31.23;5.03;;;12.30;99.90;;;;;;5065474;28;20439;-71
2021/05/21 05:48:46;;;;;;;29.23;5.10;;;12.40;99.90;;;;;;5063708;28;20431;-71
2021/05/21 05:51:13;;;;;;;31.80;4.75;;;12.40;99.90;;;;;;5064413;28;20427;-71
2021/05/21 05:53:41;;;;;;;31.30;5.10;;;12.50;99.90;;;;;;5065492;28;20424;-73
2021/05/21 05:56:09;;;;;;;29.35;4.95;;;12.50;99.90;;;;;;5069278;28;20415;-72
2021/05/21 05:58:36;;;;;;;25.95;4.88;;;12.60;99.90;;;;;;5069728;28;20415;-71
2021/05/21 06:01:03;;;;;;;31.25;5.18;;;12.60;99.90;;;;;;5068598;28;20412;-73
2021/05/21 06:03:30;;;;;;;32.78;4.95;;;12.70;99.90;;;;;;5066134;28;20428;-73
2021/05/21 06:05:57;;;;;;;26.15;4.63;;;12.70;99.90;;;;;;5067412;28;20954;-71
2021/05/21 06:08:23;;;;;;;29.48;4.60;;;12.80;99.90;;;;;;5068083;28;20415;-72
2021/05/21 06:10:51;;;;;;;31.15;5.18;;;12.80;99.90;;;;;;5069410;28;20432;-72
2021/05/21 06:13:22;;;;;;;25.92;4.70;;;12.80;99.30;;;;;;5064423;28;20433;-71
2021/05/21 06:15:49;;;;;;;29.88;5.10;;;12.90;99.00;;;;;;5066543;28;20423;-70
2021/05/21 06:18:15;;;;;;;24.90;4.20;;;12.90;98.50;;;;;;5067882;28;20857;-73
2021/05/21 06:20:42;;;;;;;27.17;4.88;;;12.90;98.20;;;;;;5069446;28;20421;-71
2021/05/21 06:23:08;;;;;;;29.08;5.22;;;13.00;98.30;;;;;;5068799;28;20403;-71
2021/05/21 06:25:53;;;;;;;31.42;5.22;;;13.00;97.90;;;;;;5067654;28;20442;-72
2021/05/21 06:28:22;;;;;;;28.92;4.70;;;13.00;98.00;;;;;;5066783;28;20411;-72
2021/05/21 06:30:49;;;;;;;27.25;4.47;;;13.10;97.60;;;;;;5068332;28;20476;-70
2021/05/21 06:33:15;;;;;;;28.15;5.00;;;13.10;97.20;;;;;;5068880;28;20469;-71
2021/05/21 06:35:42;;;;;;;31.35;5.13;;;13.20;96.90;;;;;;5068590;28;20407;-72
2021/05/21 06:38:09;;;;;;;37.10;5.65;;;13.20;96.70;;;;;;5066743;28;20434;-72
2021/05/21 06:40:36;;;;;;;31.77;5.83;;;13.20;96.60;;;;;;5087207;28;20838;-70
2021/05/21 06:43:08;;;;;;;31.30;5.55;;;13.20;96.80;;;;;;5088333;28;20510;-71
2021/05/21 06:45:35;;;;;;;35.00;5.63;;;13.20;97.00;;;;;;5086359;28;20429;-71
2021/05/21 06:48:02;;;;;;;36.03;5.87;;;13.20;96.60;;;;;;5088598;28;20398;-71
2021/05/21 06:50:28;;;;;;;34.40;5.63;;;13.30;96.20;;;;;;5085599;28;20422;-71
2021/05/21 06:52:55;;;;;;;29.40;5.10;;;13.30;96.00;;;;;;5086898;28;20401;-71
2021/05/21 06:55:21;;;;;;;31.15;5.70;;;13.30;96.00;;;;;;5088738;28;20417;-70
2021/05/21 06:57:48;;;;;;;31.05;5.28;;;13.30;95.50;;;;;;5086174;28;20420;-72
2021/05/21 07:00:15;;;;;;;30.60;5.53;;;13.40;95.50;;;;;;5088874;28;20766;-71
2021/05/21 07:02:43;;;;;;;32.33;5.43;;;13.40;95.50;;;;;;5088425;28;20441;-71
2021/05/21 07:05:12;;;;;;;23.57;4.70;;;13.40;95.10;;;;;;5085771;28;20844;-72
2021/05/21 07:07:38;;;;;;;31.48;5.60;;;13.40;94.70;;;;;;5087561;28;20527;-74
2021/05/21 07:10:07;;;;;;;29.25;4.85;;;13.50;94.60;;;;;;5086186;28;20429;-70
2021/05/21 07:12:33;;;;;;;28.43;5.20;;;13.50;94.20;;;;;;5087627;28;20975;-71
2021/05/21 07:14:59;;;;;;;28.38;5.15;;;13.50;93.90;;;;;;5082778;28;20509;-70
2021/05/21 07:17:26;;;;;;;30.45;5.60;;;13.50;93.90;;;;;;5084488;28;20430;-70
2021/05/21 07:19:53;;;;;;;29.27;4.55;;;13.50;94.20;;;;;;5083433;28;20437;-71
2021/05/21 07:22:20;;;;;;;32.20;5.13;;;13.60;93.60;;;;;;5084122;28;20790;-71
2021/05/21 07:24:46;;;;;;;28.80;5.03;;;13.60;93.50;;;;;;5081963;28;20452;-71
2021/05/21 07:27:13;;;;;;;33.53;5.65;;;13.60;93.40;;;;;;5082257;28;20425;-70
2021/05/21 07:29:39;;;;;;;31.98;5.60;;;13.60;93.30;;;;;;5081206;28;20431;-71
2021/05/21 07:32:07;;;;;;;28.42;5.28;;;13.60;93.30;;;;;;5081024;28;20419;-73
2021/05/21 07:34:34;;;;;;;27.15;4.88;;;13.70;93.10;;;;;;5078894;28;20463;-71
2021/05/21 07:37:01;;;;;;;31.05;5.40;;;13.70;93.00;;;;;;5080507;28;20436;-73
2021/05/21 07:39:27;;;;;;;27.97;5.30;;;13.70;92.90;;;;;;5082455;28;23206;-70
2021/05/21 07:41:56;;;;;;;34.37;4.90;;;13.70;92.60;;;;;;5081403;28;20782;-71
2021/05/21 07:44:23;;;;;;;26.52;4.72;;;13.80;92.50;;;;;;5082731;28;20457;-71
2021/05/21 07:46:50;;;;;;;28.77;5.35;;;13.80;92.40;;;;;;5081879;28;20445;-71
2021/05/21 07:49:22;;;;;;;26.97;4.97;;;13.90;92.50;;;;;;5079776;28;20470;-71
2021/05/21 07:51:48;;;;;;;31.07;5.17;;;13.90;92.40;;;;;;5082837;28;20970;-70
2021/05/21 07:54:16;;;;;;;29.02;4.70;;;14.00;92.50;;;;;;5067004;28;20430;-71
2021/05/21 07:56:43;;;;;;;31.23;5.38;;;14.10;92.40;;;;;;5082446;28;20895;-71
2021/05/21 07:59:11;;;;;;;36.53;5.80;;;14.10;92.50;;;;;;5087118;28;21149;-72
2021/05/21 08:01:38;;;;;;;35.43;5.83;;;14.20;92.20;;;;;;5085500;28;20435;-72
2021/05/21 08:04:04;;;;;;;32.28;5.65;;;14.20;91.80;;;;;;5086503;28;20413;-72
2021/05/21 08:06:31;;;;;;;31.58;5.45;;;14.20;91.50;;;;;;5087666;28;20417;-72
2021/05/21 08:08:57;;;;;;;27.50;5.30;;;14.20;91.40;;;;;;5086812;28;20904;-72
2021/05/21 08:11:25;;;;;;;25.23;4.55;;;14.30;91.10;;;;;;5088731;28;20425;-71
2021/05/21 08:13:51;;;;;;;27.00;5.22;;;14.30;90.80;;;;;;5087507;28;20422;-71
2021/05/21 08:16:18;;;;;;;25.95;4.63;;;14.30;90.70;;;;;;5086865;28;20425;-72
2021/05/21 08:18:44;;;;;;;27.45;4.72;;;14.30;91.00;;;;;;5084725;28;20417;-72
2021/05/21 08:21:10;;;;;;;28.05;4.72;;;14.30;91.40;;;;;;5087753;28;20432;-72
2021/05/21 08:23:37;;;;;;;25.38;4.88;;;14.30;91.20;;;;;;5086261;28;20552;-72
2021/05/21 08:26:06;;;;;;;27.08;4.82;;;14.30;91.00;;;;;;5088401;28;20425;-71
2021/05/21 08:28:33;;;;;;;27.63;5.07;;;14.30;91.40;;;;;;5086502;28;20924;-72
2021/05/21 08:31:00;;;;;;;26.17;4.63;;;14.30;91.60;;;;;;5068169;28;20436;-72
2021/05/21 08:33:26;;;;;;;26.25;5.22;;;14.30;91.50;;;;;;5086421;28;20424;-72
2021/05/21 08:35:53;;;;;;;29.75;5.28;;;14.30;91.80;;;;;;5067521;28;20851;-72
2021/05/21 08:38:19;;;;;;;28.33;5.03;;;14.30;91.60;;;;;;5086369;28;20430;-70
2021/05/21 08:40:47;;;;;;;32.67;5.38;;;14.40;91.70;;;;;;5085536;28;20433;-69
2021/05/21 08:43:14;;;;;;;26.35;5.03;;;14.40;91.70;;;;;;5070946;28;20418;-71
2021/05/21 08:45:41;;;;;;;22.08;4.93;;;14.50;91.80;;;;;;5086872;28;20425;-70
2021/05/21 08:48:19;;;;;;;29.40;4.88;;;14.50;91.40;;;;;;5070554;28;20437;-71
2021/05/21 08:50:48;;;;;;;28.23;4.95;;;14.50;91.00;;;;;;5086560;28;20449;-71
2021/05/21 08:53:14;;;;;;;22.13;4.43;;;14.50;90.80;;;;;;5087361;28;20410;-71
2021/05/21 08:55:40;;;;;;;24.50;4.18;;;14.60;90.80;;;;;;5087367;28;20418;-70
2021/05/21 08:58:11;;;;;;;25.15;4.28;;;14.60;90.90;;;;;;5084564;28;20441;-71
2021/05/21 09:00:38;;;;;;;21.60;4.32;;;14.70;90.70;;;;;;5087504;28;20770;-70
2021/05/21 09:03:22;;;;;;;19.47;4.20;;;14.70;90.50;;;;;;5086251;28;20430;-71
2021/05/21 09:06:13;;;;;;;21.63;3.85;;;14.70;90.30;;;;;;5082680;28;20425;-70
2021/05/21 09:08:43;;;;;;;23.02;4.00;;;14.80;90.40;;;;;;5087751;28;20433;-70
2021/05/21 09:11:34;;;;;;;22.38;4.30;;;14.80;90.20;;;;;;5084047;28;20424;-70
2021/05/21 09:14:03;;;;;;;23.42;4.07;;;14.80;90.20;;;;;;5067090;28;20421;-71
2021/05/21 09:16:32;;;;;;;20.13;4.05;;;14.80;90.30;;;;;;5070205;28;20766;-70
2021/05/21 09:19:17;;;;;;;22.80;4.15;;;14.80;90.60;;;;;;5082628;28;20755;-70
2021/05/21 09:22:02;;;;;;;23.15;4.20;;;14.70;91.00;;;;;;5086083;28;20457;-70
2021/05/21 09:24:33;;;;;;;24.63;4.50;;;14.70;91.40;;;;;;5088021;28;21180;-71
2021/05/21 09:27:00;;;;;;;24.10;4.10;;;14.70;91.50;;;;;;5084956;28;20415;-70
2021/05/21 09:29:43;;;;;;;19.35;4.53;;;14.70;91.40;;;;;;5086078;28;20428;-70
2021/05/21 09:32:18;;;;;;;20.20;4.03;;;14.60;91.40;;;;;;5098220;28;20793;-71
2021/05/21 09:34:48;;;;;;;19.17;4.05;;;14.70;91.90;;;;;;5087881;28;20421;-70
2021/05/21 09:37:22;;;;;;;24.45;4.22;;;14.70;92.00;;;;;;5062886;28;20431;-70
2021/05/21 09:40:10;;;;;;;24.13;4.22;;;14.80;91.60;;;;;;5087026;28;20429;-70
2021/05/21 09:42:54;;;;;;;25.20;4.40;;;14.80;90.60;;;;;;5084654;28;20417;-70
2021/05/21 09:45:27;;;;;;;30.33;4.80;;;14.80;89.80;;;;;;5087108;28;20438;-70
2021/05/21 09:47:56;;;;;;;20.88;3.38;;;14.90;89.60;;;;;;5083607;28;20426;-70
2021/05/21 09:50:40;;;;;;;21.05;3.92;;;14.90;86.40;;;;;;5086307;28;20471;-70
2021/05/21 09:53:09;;;;;;;20.58;3.45;;;14.80;85.50;;;;;;5066506;28;20595;-70
2021/05/21 09:55:39;;;;;;;18.95;3.80;;;14.80;85.50;;;;;;5084998;28;20479;-71
2021/05/21 09:58:06;;;;;;;25.15;4.15;;;14.80;85.90;;;;;;5084287;28;20920;-70
2021/05/21 10:00:32;;;;;;;25.67;4.82;;;14.80;87.10;;;;;;5083653;28;20910;-71
2021/05/21 10:02:59;;;;;;;27.13;4.82;;;14.70;94.20;;;;;;5082661;28;20534;-71
2021/05/21 10:05:27;;;;;;;25.63;4.77;;;14.40;97.30;;;;;;5085125;28;20433;-71
2021/05/21 10:07:55;;;;;;;26.63;4.68;;;14.10;99.20;;;;;;5081138;28;20429;-71
2021/05/21 10:10:23;;;;;;;28.08;4.68;;;13.80;99.80;;;;;;5084384;28;20495;-71
2021/05/21 10:12:50;;;;;;;26.33;4.55;;;13.60;99.90;;;;;;5082042;28;20490;-71
2021/05/21 10:15:16;;;;;;;26.58;4.85;;;13.40;99.90;;;;;;5082881;28;20437;-71
2021/05/21 10:17:45;;;;;;;26.92;5.03;;;13.40;99.90;;;;;;5081559;28;20432;-72
2021/05/21 10:20:14;;;;;;;32.92;5.10;;;13.40;99.40;;;;;;5085882;28;20430;-72
2021/05/21 10:22:42;;;;;;;25.65;4.40;;;13.40;99.20;;;;;;5082442;28;20521;-72
2021/05/21 10:25:15;;;;;;;27.20;4.77;;;13.50;98.00;;;;;;5086870;28;20778;-71
2021/05/21 10:27:46;;;;;;;30.70;4.95;;;13.60;97.40;;;;;;5082029;28;20561;-72
2021/05/21 10:30:15;;;;;;;30.95;4.97;;;13.70;95.90;;;;;;5083503;28;20794;-71
2021/05/21 10:32:41;;;;;;;24.98;4.78;;;13.70;95.40;;;;;;5084563;28;20425;-71
2021/05/21 10:35:16;;;;;;;24.83;4.30;;;13.90;94.80;;;;;;5083757;28;20437;-72
2021/05/21 10:38:18;;;;;;;24.17;4.57;;;14.10;93.20;;;;;;5081153;28;20525;-71
2021/05/21 10:41:14;;;;;;;27.40;4.68;;;14.30;92.80;;;;;;5081532;28;20558;-70
2021/05/21 10:43:48;;;;;;;22.92;3.90;;;14.40;91.40;;;;;;5064070;28;20430;-71
2021/05/21 10:46:27;;;;;;;23.77;3.58;;;14.50;90.30;;;;;;5067588;28;20413;-71
2021/05/21 10:48:55;;;;;;;25.88;4.30;;;14.60;89.30;;;;;;5084409;28;20846;-71
2021/05/21 10:51:23;;;;;;;30.15;4.00;;;14.50;87.40;;;;;;5084473;28;20418;-70
2021/05/21 10:54:26;;;;;;;21.98;3.45;;;14.60;87.20;;;;;;5082080;28;20780;-70
2021/05/21 10:56:57;;;;;;;21.13;3.50;;;14.60;85.40;;;;;;5081753;28;21178;-71
2021/05/21 10:59:53;;;;;;;20.00;3.38;;;14.70;84.30;;;;;;5083332;28;20425;-70
2021/05/21 11:02:22;;;;;;;17.70;3.15;;;14.80;83.70;;;;;;5062891;28;20425;-72
2021/05/21 11:04:48;;;;;;;24.65;3.67;;;14.90;82.70;;;;;;5068253;28;20866;-71
2021/05/21 11:07:33;;;;;;;21.67;3.40;;;14.90;82.00;;;;;;5084379;28;20482;-72
2021/05/21 11:10:00;;;;;;;19.55;3.13;;;14.90;81.80;;;;;;5083484;28;20484;-70
2021/05/21 11:12:51;;;;;;;24.00;3.28;;;15.00;79.20;;;;;;5081081;28;20436;-70
2021/05/21 11:15:36;;;;;;;18.40;2.83;;;15.00;78.40;;;;;;5079010;28;20464;-71
2021/05/21 11:18:29;;;;;;;19.55;3.10;;;15.10;76.90;;;;;;5097120;28;20425;-71
2021/05/21 11:21:02;;;;;;;21.90;3.42;;;15.20;77.90;;;;;;5084306;28;20894;-70
2021/05/21 11:23:35;;;;;;;24.80;3.90;;;15.20;78.40;;;;;;5081968;28;20425;-70
2021/05/21 11:26:21;;;;;;;23.23;3.67;;;15.30;78.00;;;;;;5081517;28;20541;-72
2021/05/21 11:28:50;;;;;;;25.30;4.00;;;15.40;76.40;;;;;;5093093;28;20431;-71
2021/05/21 11:31:18;;;;;;;34.00;4.15;;;15.40;75.50;;;;;;5084594;28;20425;-71
2021/05/21 11:33:47;;;;;;;33.33;4.53;;;15.40;76.60;;;;;;5080164;28;20574;-71
2021/05/21 11:36:13;;;;;;;25.58;3.95;;;15.50;77.30;;;;;;5083762;28;20433;-71
2021/05/21 11:38:41;;;;;;;30.02;4.30;;;15.50;76.40;;;;;;5076697;28;20445;-71
2021/05/21 11:41:11;;;;;;;36.25;4.75;;;15.60;74.60;;;;;;5084429;28;20418;-71
2021/05/21 11:43:39;;;;;;;33.20;4.78;;;15.80;75.20;;;;;;5082677;28;20428;-70
2021/05/21 11:46:13;;;;;;;34.92;4.78;;;15.90;75.00;;;;;;5099298;28;20426;-73
2021/05/21 11:48:40;;;;;;;41.63;5.00;;;16.00;75.30;;;;;;5081070;28;20821;-72
2021/05/21 11:51:13;;;;;;;26.40;4.00;;;16.10;74.90;;;;;;5097103;28;20430;-73
2021/05/21 11:53:50;;;;;;;33.97;3.97;;;16.20;75.20;;;;;;5081889;28;20426;-72
2021/05/21 11:56:27;;;;;;;26.67;3.67;;;16.20;74.70;;;;;;5084394;28;20487;-71
2021/05/21 11:58:58;;;;;;;21.67;3.33;;;16.30;73.00;;;;;;5083065;28;20418;-73
2021/05/21 12:01:25;;;;;;;42.20;4.68;;;16.30;73.10;;;;;;5081635;28;20439;-72
2021/05/21 12:03:52;;;;;;;30.48;3.78;;;16.40;71.80;;;;;;5081533;28;20474;-72
2021/05/21 12:06:18;;;;;;;37.58;4.28;;;16.50;71.00;;;;;;5084427;28;20421;-72
2021/05/21 12:08:47;;;;;;;28.80;4.10;;;16.50;71.40;;;;;;5083430;28;20924;-72
2021/05/21 12:11:14;;;;;;;32.97;4.30;;;16.70;71.70;;;;;;5065926;28;20437;-72
2021/05/21 12:13:41;;;;;;;27.98;4.18;;;16.80;72.30;;;;;;5084610;28;20425;-72
2021/05/21 12:16:12;;;;;;;37.50;4.15;;;16.90;69.60;;;;;;5065340;28;20424;-72
2021/05/21 12:18:39;;;;;;;40.30;4.85;;;16.90;69.10;;;;;;5080905;28;20428;-70
2021/05/21 12:21:06;;;;;;;40.40;4.55;;;16.90;69.10;;;;;;5067135;28;20427;-71
2021/05/21 12:23:35;;;;;;;36.75;4.22;;;17.00;70.30;;;;;;5083116;28;20417;-71
2021/05/21 12:26:02;;;;;;;27.00;3.75;;;17.00;70.00;;;;;;5065524;28;20433;-71
2021/05/21 12:28:30;;;;;;;30.23;3.85;;;17.00;68.90;;;;;;5080924;28;20575;-73
2021/05/21 12:31:01;;;;;;;31.05;4.10;;;16.90;68.20;;;;;;5082002;28;20486;-70
2021/05/21 12:33:30;;;;;;;24.17;3.60;;;16.80;68.90;;;;;;5095152;28;20417;-70
2021/05/21 12:36:03;;;;;;;27.40;3.50;;;16.80;69.80;;;;;;5082097;28;20422;-73
2021/05/21 12:38:30;;;;;;;26.98;3.00;;;16.80;69.20;;;;;;5078907;28;21000;-70
2021/05/21 12:40:58;;;;;;;28.30;3.60;;;16.90;67.40;;;;;;5097410;28;20466;-70
2021/05/21 12:43:26;;;;;;;27.35;3.42;;;16.90;67.70;;;;;;5082435;28;20865;-69